createdAt,value
2023-04-17T00:01:27.126Z,100.00
2023-04-17T00:03:54.665Z,100.00
2023-04-17T00:06:21.406Z,100.00
2023-04-17T00:08:48.021Z,100.00
2023-04-17T00:11:15.023Z,100.00
2023-04-17T00:13:43.863Z,100.00
2023-04-17T00:16:12.609Z,100.00
2023-04-17T00:18:40.312Z,100.00
2023-04-17T00:21:06.975Z,100.00
2023-04-17T00:23:34.819Z,100.00
2023-04-17T00:26:01.490Z,100.00
2023-04-17T00:28:29.199Z,100.00
2023-04-17T00:30:58.170Z,100.00
2023-04-17T00:33:25.348Z,100.00
2023-04-17T00:35:52.168Z,100.00
2023-04-17T00:38:18.815Z,100.00
2023-04-17T00:40:46.145Z,100.00
2023-04-17T00:43:12.730Z,100.00
2023-04-17T00:45:39.431Z,100.00
2023-04-17T00:48:07.574Z,100.00
2023-04-17T00:50:35.374Z,100.00
2023-04-17T00:53:02.409Z,100.00
2023-04-17T00:55:31.321Z,100.00
2023-04-17T00:57:59.432Z,100.00
2023-04-17T01:00:26.263Z,100.00
2023-04-17T01:02:53.381Z,100.00
2023-04-17T01:05:20.436Z,100.00
2023-04-17T01:07:47.096Z,100.00
2023-04-17T01:10:13.745Z,100.00
2023-04-17T01:12:41.375Z,100.00
2023-04-17T01:15:08.249Z,100.00
2023-04-17T01:17:36.107Z,100.00
2023-04-17T01:20:07.339Z,100.00
2023-04-17T01:22:34.046Z,100.00
2023-04-17T01:25:00.900Z,100.00
2023-04-17T01:27:35.127Z,100.00
2023-04-17T01:30:02.200Z,100.00
2023-04-17T01:32:31.881Z,100.00
2023-04-17T01:34:58.948Z,100.00
2023-04-17T01:37:25.786Z,100.00
2023-04-17T01:39:52.437Z,100.00
2023-04-17T01:42:19.105Z,100.00
2023-04-17T01:44:45.870Z,100.00
2023-04-17T01:47:14.514Z,100.00
2023-04-17T01:49:41.190Z,100.00
2023-04-17T01:52:07.780Z,100.00
2023-04-17T01:54:34.443Z,100.00
2023-04-17T01:57:01.279Z,100.00
2023-04-17T01:59:28.222Z,100.00
2023-04-17T02:01:55.472Z,100.00
2023-04-17T02:04:22.182Z,100.00
2023-04-17T02:06:48.915Z,100.00
2023-04-17T02:09:16.692Z,100.00
2023-04-17T02:11:43.394Z,100.00
2023-04-17T02:14:11.207Z,100.00
2023-04-17T02:16:39.977Z,100.00
2023-04-17T02:19:06.575Z,100.00
2023-04-17T02:21:33.147Z,100.00
2023-04-17T02:23:59.709Z,100.00
2023-04-17T02:26:28.149Z,100.00
2023-04-17T02:28:54.987Z,100.00
2023-04-17T02:31:22.026Z,100.00
2023-04-17T02:33:48.753Z,100.00
2023-04-17T02:36:16.216Z,100.00
2023-04-17T02:38:44.357Z,100.00
2023-04-17T02:41:12.904Z,100.00
2023-04-17T02:43:40.285Z,100.00
2023-04-17T02:46:07.002Z,100.00
2023-04-17T02:48:33.609Z,100.00
2023-04-17T02:51:00.231Z,100.00
2023-04-17T02:53:27.497Z,100.00
2023-04-17T02:55:54.160Z,100.00
2023-04-17T02:58:23.376Z,100.00
2023-04-17T03:00:50.050Z,100.00
2023-04-17T03:03:18.561Z,100.00
2023-04-17T03:05:45.374Z,100.00
2023-04-17T03:08:12.078Z,100.00
2023-04-17T03:10:45.218Z,100.00
2023-04-17T03:13:11.954Z,100.00
2023-04-17T03:15:38.633Z,100.00
2023-04-17T03:18:05.454Z,100.00
2023-04-17T03:20:32.304Z,100.00
2023-04-17T03:22:59.059Z,100.00
2023-04-17T03:25:25.850Z,100.00
2023-04-17T03:27:53.050Z,100.00
2023-04-17T03:30:23.163Z,100.00
2023-04-17T03:32:51.900Z,100.00
2023-04-17T03:35:18.613Z,100.00
2023-04-17T03:37:45.285Z,100.00
2023-04-17T03:40:13.145Z,100.00
2023-04-17T03:42:39.846Z,100.00
2023-04-17T03:45:07.183Z,100.00
2023-04-17T03:47:33.874Z,100.00
2023-04-17T03:50:00.818Z,100.00
2023-04-17T03:52:32.760Z,100.00
2023-04-17T03:54:59.891Z,100.00
2023-04-17T03:57:27.088Z,100.00
2023-04-17T03:59:53.774Z,100.00
2023-04-17T04:02:20.860Z,100.00
2023-04-17T04:04:50.461Z,100.00
2023-04-17T04:07:17.441Z,100.00
2023-04-17T04:09:44.890Z,100.00
2023-04-17T04:12:11.902Z,100.00
2023-04-17T04:14:42.169Z,100.00
2023-04-17T04:17:09.875Z,100.00
2023-04-17T04:19:38.310Z,100.00
2023-04-17T04:22:06.910Z,100.00
2023-04-17T04:24:41.283Z,100.00
2023-04-17T04:27:09.353Z,100.00
2023-04-17T04:29:37.737Z,100.00
2023-04-17T04:32:09.626Z,100.00
2023-04-17T04:34:42.122Z,100.00
2023-04-17T04:37:08.741Z,100.00
2023-04-17T04:39:40.075Z,100.00
2023-04-17T04:42:09.986Z,100.00
2023-04-17T04:44:55.671Z,100.00
2023-04-17T04:47:25.748Z,100.00
2023-04-17T04:49:53.745Z,100.00
2023-04-17T04:52:21.840Z,100.00
2023-04-17T04:54:50.277Z,100.00
2023-04-17T04:57:16.816Z,100.00
2023-04-17T04:59:45.989Z,100.00
2023-04-17T05:02:30.077Z,100.00
2023-04-17T05:04:57.480Z,100.00
2023-04-17T05:07:24.336Z,100.00
2023-04-17T05:09:51.070Z,100.00
2023-04-17T05:12:21.205Z,100.00
2023-04-17T05:14:50.115Z,100.00
2023-04-17T05:17:19.287Z,100.00
2023-04-17T05:19:46.032Z,100.00
2023-04-17T05:22:14.100Z,100.00
2023-04-17T05:24:56.672Z,100.00
2023-04-17T05:27:23.399Z,100.00
2023-04-17T05:29:50.055Z,100.00
2023-04-17T05:32:17.342Z,100.00
2023-04-17T05:34:56.776Z,100.00
2023-04-17T05:37:26.488Z,100.00
2023-04-17T05:39:54.792Z,100.00
2023-04-17T05:42:21.452Z,100.00
2023-04-17T05:44:47.995Z,100.00
2023-04-17T05:47:14.661Z,100.00
2023-04-17T05:49:43.852Z,100.00
2023-04-17T05:52:10.894Z,100.00
2023-04-17T05:54:42.007Z,100.00
2023-04-17T05:57:08.969Z,100.00
2023-04-17T05:59:36.430Z,100.00
2023-04-17T06:02:04.255Z,100.00
2023-04-17T06:04:33.463Z,100.00
2023-04-17T06:07:02.563Z,100.00
2023-04-17T06:09:29.240Z,100.00
2023-04-17T06:11:56.352Z,100.00
2023-04-17T06:14:23.014Z,100.00
2023-04-17T06:16:50.630Z,100.00
2023-04-17T06:19:18.290Z,100.00
2023-04-17T06:21:45.291Z,100.00
2023-04-17T06:24:11.944Z,100.00
2023-04-17T06:26:44.015Z,100.00
2023-04-17T06:29:10.861Z,100.00
2023-04-17T06:31:37.780Z,100.00
2023-04-17T06:34:04.884Z,100.00
2023-04-17T06:36:38.366Z,100.00
2023-04-17T06:39:05.038Z,100.00
2023-04-17T06:41:32.491Z,100.00
2023-04-17T06:44:00.597Z,100.00
2023-04-17T06:46:42.926Z,100.00
2023-04-17T06:49:09.662Z,100.00
2023-04-17T06:51:36.457Z,100.00
2023-04-17T06:54:03.064Z,100.00
2023-04-17T06:56:29.628Z,100.00
2023-04-17T06:58:57.891Z,100.00
2023-04-17T07:01:24.578Z,100.00
2023-04-17T07:03:51.405Z,100.00
2023-04-17T07:06:19.384Z,100.00
2023-04-17T07:08:46.041Z,100.00
2023-04-17T07:11:12.648Z,100.00
2023-04-17T07:13:39.237Z,100.00
2023-04-17T07:16:06.379Z,100.00
2023-04-17T07:18:33.374Z,100.00
2023-04-17T07:21:00.149Z,100.00
2023-04-17T07:23:26.743Z,100.00
2023-04-17T07:25:53.405Z,100.00
2023-04-17T07:28:20.211Z,100.00
2023-04-17T07:30:46.798Z,100.00
2023-04-17T07:33:13.515Z,100.00
2023-04-17T07:35:40.215Z,100.00
2023-04-17T07:38:06.909Z,100.00
2023-04-17T07:40:36.101Z,100.00
2023-04-17T07:43:02.742Z,100.00
2023-04-17T07:45:29.438Z,100.00
2023-04-17T07:47:56.163Z,100.00
2023-04-17T07:50:22.783Z,100.00
2023-04-17T07:52:50.573Z,100.00
2023-04-17T07:55:17.302Z,100.00
2023-04-17T07:57:46.484Z,100.00
2023-04-17T08:00:16.729Z,100.00
2023-04-17T08:02:43.584Z,100.00
2023-04-17T08:05:10.877Z,100.00
2023-04-17T08:07:37.788Z,100.00
2023-04-17T08:10:05.344Z,100.00
2023-04-17T08:12:32.824Z,100.00
2023-04-17T08:14:59.652Z,100.00
2023-04-17T08:17:29.926Z,100.00
2023-04-17T08:20:02.067Z,100.00
2023-04-17T08:22:29.039Z,100.00
2023-04-17T08:24:59.615Z,100.00
2023-04-17T08:27:26.483Z,100.00
2023-04-17T08:29:56.497Z,100.00
2023-04-17T08:32:23.355Z,100.00
2023-04-17T08:34:49.976Z,100.00
2023-04-17T08:37:16.643Z,100.00
2023-04-17T08:39:43.701Z,100.00
2023-04-17T08:42:15.372Z,100.00
2023-04-17T08:44:44.557Z,100.00
2023-04-17T08:47:12.792Z,100.00
2023-04-17T08:49:43.286Z,100.00
2023-04-17T08:52:10.824Z,100.00
2023-04-17T08:54:38.352Z,100.00
2023-04-17T08:57:06.096Z,100.00
2023-04-17T08:59:32.951Z,100.00
2023-04-17T09:02:07.577Z,100.00
2023-04-17T09:04:38.521Z,100.00
2023-04-17T09:07:11.088Z,100.00
2023-04-17T09:09:51.850Z,100.00
2023-04-17T09:12:20.389Z,100.00
2023-04-17T09:14:47.288Z,100.00
2023-04-17T09:17:19.454Z,100.00
2023-04-17T09:20:11.736Z,100.00
2023-04-17T09:22:40.419Z,100.00
2023-04-17T09:25:23.151Z,96.30
2023-04-17T09:27:49.793Z,88.44
2023-04-17T09:30:16.520Z,85.59
2023-04-17T09:32:43.359Z,82.59
2023-04-17T09:35:10.032Z,83.27
2023-04-17T09:37:51.421Z,79.80
2023-04-17T09:40:23.682Z,83.39
2023-04-17T09:43:02.157Z,76.86
2023-04-17T09:45:35.493Z,73.08
2023-04-17T09:48:13.106Z,74.41
2023-04-17T09:50:40.232Z,76.23
2023-04-17T09:53:07.977Z,75.92
2023-04-17T09:55:36.960Z,70.77
2023-04-17T09:58:06.098Z,71.37
2023-04-17T10:00:32.831Z,69.96
2023-04-17T10:02:59.844Z,73.51
2023-04-17T10:05:29.153Z,72.05
2023-04-17T10:07:56.520Z,73.96
2023-04-17T10:10:26.249Z,73.34
2023-04-17T10:12:57.250Z,75.39
2023-04-17T10:15:25.554Z,72.33
2023-04-17T10:17:53.470Z,75.02
2023-04-17T10:20:28.787Z,73.74
2023-04-17T10:22:56.333Z,66.78
2023-04-17T10:25:27.439Z,66.23
2023-04-17T10:27:55.217Z,66.73
2023-04-17T10:30:28.674Z,64.65
2023-04-17T10:33:19.785Z,62.34
2023-04-17T10:35:49.078Z,64.44
2023-04-17T10:38:16.296Z,66.92
2023-04-17T10:40:43.828Z,66.07
2023-04-17T10:43:11.245Z,63.29
2023-04-17T10:46:09.499Z,63.26
2023-04-17T10:48:46.714Z,64.17
2023-04-17T10:51:28.884Z,62.42
2023-04-17T10:53:58.490Z,60.08
2023-04-17T10:56:27.029Z,60.57
2023-04-17T10:59:00.101Z,58.85
2023-04-17T11:01:31.972Z,57.13
2023-04-17T11:04:01.802Z,56.72
2023-04-17T11:06:31.569Z,55.74
2023-04-17T11:09:00.415Z,54.80
2023-04-17T11:11:43.014Z,55.27
2023-04-17T11:14:14.621Z,55.64
2023-04-17T11:16:44.157Z,54.47
2023-04-17T11:19:17.008Z,52.72
2023-04-17T11:21:45.312Z,50.53
2023-04-17T11:24:12.067Z,50.09
2023-04-17T11:26:45.661Z,48.79
2023-04-17T11:29:22.861Z,46.79
2023-04-17T11:31:51.974Z,46.31
2023-04-17T11:34:19.274Z,45.98
2023-04-17T11:37:04.478Z,43.18
2023-04-17T11:39:33.804Z,43.40
2023-04-17T11:42:02.532Z,42.96
2023-04-17T11:44:29.746Z,43.72
2023-04-17T11:46:58.661Z,42.71
2023-04-17T11:49:26.451Z,43.20
2023-04-17T11:51:53.943Z,43.12
2023-04-17T11:54:25.523Z,43.16
2023-04-17T11:57:12.558Z,41.14
2023-04-17T11:59:42.074Z,43.19
2023-04-17T12:02:09.383Z,43.50
2023-04-17T12:04:37.776Z,42.93
2023-04-17T12:07:06.061Z,42.51
2023-04-17T12:09:34.015Z,41.75
2023-04-17T12:12:03.749Z,42.44
2023-04-17T12:14:31.434Z,39.81
2023-04-17T12:16:59.340Z,38.39
2023-04-17T12:19:29.124Z,36.36
2023-04-17T12:21:56.562Z,35.24
2023-04-17T12:24:24.884Z,34.30
2023-04-17T12:26:52.418Z,34.71
2023-04-17T12:29:26.505Z,34.54
2023-04-17T12:31:59.523Z,35.83
2023-04-17T12:34:27.803Z,34.28
2023-04-17T12:36:54.736Z,33.77
2023-04-17T12:39:21.425Z,32.62
2023-04-17T12:41:48.113Z,32.05
2023-04-17T12:44:15.019Z,32.50
2023-04-17T12:46:42.038Z,32.84
2023-04-17T12:49:09.041Z,31.89
2023-04-17T12:51:37.995Z,30.83
2023-04-17T12:54:05.056Z,32.58
2023-04-17T12:56:32.061Z,32.91
2023-04-17T12:59:01.306Z,32.60
2023-04-17T13:01:29.794Z,32.91
2023-04-17T13:03:56.959Z,32.75
2023-04-17T13:06:23.869Z,32.24
2023-04-17T13:08:50.428Z,33.20
2023-04-17T13:11:16.969Z,33.49
2023-04-17T13:13:43.558Z,32.75
2023-04-17T13:16:10.562Z,31.97
2023-04-17T13:18:37.549Z,31.31
2023-04-17T13:21:04.311Z,30.42
2023-04-17T13:23:31.242Z,30.95
2023-04-17T13:25:57.873Z,31.57
2023-04-17T13:28:24.423Z,33.84
2023-04-17T13:30:51.033Z,32.67
2023-04-17T13:33:17.662Z,31.01
2023-04-17T13:35:44.312Z,32.70
2023-04-17T13:38:10.931Z,32.04
2023-04-17T13:40:38.526Z,33.97
2023-04-17T13:43:06.605Z,34.46
2023-04-17T13:45:33.266Z,35.45
2023-04-17T13:48:00.342Z,36.07
2023-04-17T13:50:27.500Z,36.26
2023-04-17T13:52:54.091Z,35.10
2023-04-17T13:55:20.723Z,35.05
2023-04-17T13:57:48.375Z,34.85
2023-04-17T14:00:15.494Z,34.82
2023-04-17T14:02:43.064Z,33.72
2023-04-17T14:05:09.998Z,33.67
2023-04-17T14:07:37.650Z,33.47
2023-04-17T14:10:04.706Z,32.92
2023-04-17T14:12:31.512Z,32.95
2023-04-17T14:14:58.329Z,31.91
2023-04-17T14:17:25.175Z,31.47
2023-04-17T14:19:52.503Z,31.96
2023-04-17T14:22:20.057Z,32.44
2023-04-17T14:24:46.644Z,33.90
2023-04-17T14:27:13.269Z,34.55
2023-04-17T14:29:39.917Z,34.45
2023-04-17T14:32:06.591Z,32.09
2023-04-17T14:34:33.277Z,31.76
2023-04-17T14:37:00.052Z,32.70
2023-04-17T14:39:27.573Z,33.18
2023-04-17T14:41:55.040Z,32.79
2023-04-17T14:44:21.697Z,33.10
2023-04-17T14:46:48.731Z,31.81
2023-04-17T14:49:15.754Z,31.80
2023-04-17T14:51:42.363Z,31.99
2023-04-17T14:54:09.015Z,30.11
2023-04-17T14:56:35.635Z,30.32
2023-04-17T14:59:03.127Z,30.40
2023-04-17T15:01:29.801Z,29.51
2023-04-17T15:03:57.212Z,29.54
2023-04-17T15:06:24.917Z,29.68
2023-04-17T15:08:51.505Z,29.93
2023-04-17T15:11:18.106Z,29.33
2023-04-17T15:13:44.690Z,29.06
2023-04-17T15:16:11.387Z,29.75
2023-04-17T15:18:39.321Z,30.45
2023-04-17T15:21:06.328Z,30.89
2023-04-17T15:23:34.527Z,30.79
2023-04-17T15:26:01.397Z,30.55
2023-04-17T15:28:28.341Z,29.46
2023-04-17T15:30:56.805Z,29.12
2023-04-17T15:33:23.521Z,28.69
2023-04-17T15:35:58.470Z,28.72
2023-04-17T15:38:26.217Z,29.13
2023-04-17T15:40:53.551Z,28.86
2023-04-17T15:43:20.870Z,28.57
2023-04-17T15:45:51.626Z,29.09
2023-04-17T15:48:18.215Z,28.68
2023-04-17T15:50:44.909Z,28.82
2023-04-17T15:53:13.179Z,28.84
2023-04-17T15:55:41.071Z,28.51
2023-04-17T15:58:07.830Z,28.73
2023-04-17T16:00:34.473Z,28.05
2023-04-17T16:03:01.402Z,28.39
2023-04-17T16:05:30.402Z,28.10
2023-04-17T16:07:57.261Z,27.96
2023-04-17T16:10:24.103Z,29.07
2023-04-17T16:12:50.894Z,28.55
2023-04-17T16:15:17.937Z,28.55
2023-04-17T16:17:45.739Z,28.89
2023-04-17T16:20:12.683Z,31.61
2023-04-17T16:22:39.339Z,32.30
2023-04-17T16:25:06.661Z,31.51
2023-04-17T16:27:33.649Z,31.86
2023-04-17T16:30:00.312Z,33.15
2023-04-17T16:32:27.341Z,32.58
2023-04-17T16:34:54.312Z,32.80
2023-04-17T16:37:21.034Z,34.07
2023-04-17T16:39:47.749Z,34.32
2023-04-17T16:42:14.659Z,34.68
2023-04-17T16:44:41.228Z,34.99
2023-04-17T16:47:13.247Z,35.63
2023-04-17T16:49:41.144Z,37.14
2023-04-17T16:52:07.809Z,38.10
2023-04-17T16:54:34.812Z,39.09
2023-04-17T16:57:01.472Z,40.16
2023-04-17T16:59:28.204Z,40.96
2023-04-17T17:01:54.827Z,41.68
2023-04-17T17:04:21.522Z,41.76
2023-04-17T17:06:48.165Z,41.82
2023-04-17T17:09:15.018Z,42.90
2023-04-17T17:11:41.868Z,43.68
2023-04-17T17:14:08.584Z,45.04
2023-04-17T17:16:35.227Z,45.35
2023-04-17T17:19:02.620Z,46.01
2023-04-17T17:21:29.473Z,45.72
2023-04-17T17:23:56.052Z,45.93
2023-04-17T17:26:22.670Z,45.70
2023-04-17T17:28:51.314Z,46.20
2023-04-17T17:31:18.352Z,46.90
2023-04-17T17:33:45.158Z,46.76
2023-04-17T17:36:12.129Z,46.49
2023-04-17T17:38:38.929Z,47.13
2023-04-17T17:41:05.731Z,47.08
2023-04-17T17:43:32.344Z,47.36
2023-04-17T17:45:59.017Z,47.09
2023-04-17T17:48:25.769Z,48.24
2023-04-17T17:50:57.369Z,48.26
2023-04-17T17:53:26.229Z,48.88
2023-04-17T17:55:57.219Z,49.49
2023-04-17T17:58:24.466Z,49.44
2023-04-17T18:00:52.122Z,50.16
2023-04-17T18:03:19.228Z,50.87
2023-04-17T18:05:46.837Z,51.85
2023-04-17T18:08:14.119Z,52.83
2023-04-17T18:10:40.844Z,54.03
2023-04-17T18:13:07.389Z,55.83
2023-04-17T18:15:35.533Z,58.03
2023-04-17T18:18:02.153Z,61.36
2023-04-17T18:20:28.789Z,64.21
2023-04-17T18:22:55.731Z,67.10
2023-04-17T18:25:22.360Z,70.60
2023-04-17T18:27:48.944Z,73.60
2023-04-17T18:30:15.744Z,76.39
2023-04-17T18:32:42.470Z,79.97
2023-04-17T18:35:09.414Z,82.60
2023-04-17T18:37:36.112Z,85.04
2023-04-17T18:40:03.131Z,87.01
2023-04-17T18:42:29.810Z,89.06
2023-04-17T18:44:56.367Z,92.46
2023-04-17T18:47:23.087Z,95.44
2023-04-17T18:49:52.343Z,96.95
2023-04-17T18:52:19.192Z,95.95
2023-04-17T18:54:45.910Z,96.09
2023-04-17T18:57:12.611Z,95.41
2023-04-17T18:59:42.001Z,95.32
2023-04-17T19:02:09.776Z,95.96
2023-04-17T19:04:36.575Z,95.89
2023-04-17T19:07:03.192Z,95.52
2023-04-17T19:09:29.916Z,94.88
2023-04-17T19:11:58.503Z,98.18
2023-04-17T19:14:25.240Z,97.54
2023-04-17T19:16:52.033Z,97.14
2023-04-17T19:19:19.737Z,97.59
2023-04-17T19:21:46.391Z,97.13
2023-04-17T19:24:13.038Z,97.26
2023-04-17T19:26:39.696Z,96.23
2023-04-17T19:29:06.248Z,97.79
2023-04-17T19:31:33.243Z,99.26
2023-04-17T19:34:00.394Z,100.00
2023-04-17T19:36:28.118Z,100.00
2023-04-17T19:38:58.850Z,100.00
2023-04-17T19:41:26.209Z,100.00
2023-04-17T19:43:54.115Z,100.00
2023-04-17T19:46:21.996Z,100.00
2023-04-17T19:48:49.560Z,100.00
2023-04-17T19:51:16.724Z,100.00
2023-04-17T19:53:44.206Z,100.00
2023-04-17T19:56:10.898Z,100.00
2023-04-17T19:58:38.398Z,100.00
2023-04-17T20:01:05.387Z,100.00
2023-04-17T20:03:33.079Z,100.00
2023-04-17T20:06:00.380Z,100.00
2023-04-17T20:08:27.124Z,100.00
2023-04-17T20:10:53.924Z,100.00
2023-04-17T20:13:21.302Z,100.00
2023-04-17T20:15:47.867Z,100.00
2023-04-17T20:18:14.478Z,100.00
2023-04-17T20:20:41.110Z,100.00
2023-04-17T20:23:07.891Z,100.00
2023-04-17T20:25:34.549Z,100.00
2023-04-17T20:28:02.796Z,100.00
2023-04-17T20:30:29.543Z,100.00
2023-04-17T20:32:56.766Z,100.00
2023-04-17T20:35:26.304Z,100.00
2023-04-17T20:37:53.056Z,100.00
2023-04-17T20:40:20.054Z,100.00
2023-04-17T20:42:47.692Z,100.00
2023-04-17T20:45:14.663Z,100.00
2023-04-17T20:50:14.752Z,100.00
2023-04-17T20:52:41.374Z,100.00
2023-04-17T20:55:08.424Z,100.00
2023-04-17T20:57:35.575Z,100.00
2023-04-17T21:00:02.224Z,100.00
2023-04-17T21:02:30.177Z,100.00
2023-04-17T21:04:58.429Z,100.00
2023-04-17T21:07:25.495Z,100.00
2023-04-17T21:09:52.164Z,100.00
2023-04-17T21:12:19.001Z,100.00
2023-04-17T21:14:45.827Z,100.00
2023-04-17T21:17:12.530Z,100.00
2023-04-17T21:19:40.237Z,100.00
2023-04-17T21:22:06.945Z,100.00
2023-04-17T21:24:33.611Z,100.00
2023-04-17T21:27:01.320Z,100.00
2023-04-17T21:29:28.836Z,100.00
2023-04-17T21:31:56.308Z,100.00
2023-04-17T21:34:23.991Z,100.00
2023-04-17T21:36:53.085Z,100.00
2023-04-17T21:39:20.478Z,100.00
2023-04-17T21:41:47.137Z,100.00
2023-04-17T21:44:13.906Z,100.00
2023-04-17T21:46:43.195Z,100.00
2023-04-17T21:49:09.761Z,100.00
2023-04-17T21:51:36.370Z,100.00
2023-04-17T21:54:03.304Z,100.00
2023-04-17T21:56:29.920Z,100.00
2023-04-17T21:58:56.574Z,100.00
2023-04-17T22:01:23.280Z,100.00
2023-04-17T22:03:49.977Z,100.00
2023-04-17T22:06:16.645Z,100.00
2023-04-17T22:08:43.217Z,100.00
2023-04-17T22:11:09.930Z,100.00
2023-04-17T22:13:36.606Z,100.00
2023-04-17T22:16:03.639Z,100.00
2023-04-17T22:18:30.329Z,100.00
2023-04-17T22:20:56.980Z,100.00
2023-04-17T22:23:23.697Z,100.00
2023-04-17T22:25:50.381Z,100.00
2023-04-17T22:28:17.034Z,100.00
2023-04-17T22:30:43.839Z,100.00
2023-04-17T22:33:10.431Z,100.00
2023-04-17T22:35:37.139Z,100.00
2023-04-17T22:38:03.802Z,100.00
2023-04-17T22:40:30.493Z,100.00
2023-04-17T22:42:57.142Z,100.00
2023-04-17T22:45:23.784Z,100.00
2023-04-17T22:47:50.443Z,100.00
2023-04-17T22:50:17.395Z,100.00
2023-04-17T22:52:44.023Z,100.00
2023-04-17T22:55:11.149Z,100.00
2023-04-17T22:57:37.768Z,100.00
2023-04-17T23:00:07.890Z,100.00
2023-04-17T23:02:36.001Z,100.00
2023-04-17T23:05:03.170Z,100.00
2023-04-17T23:07:29.971Z,100.00
2023-04-17T23:09:56.556Z,100.00
2023-04-17T23:12:23.169Z,100.00
2023-04-17T23:14:49.778Z,100.00
2023-04-17T23:17:16.439Z,100.00
2023-04-17T23:19:43.055Z,100.00
2023-04-17T23:22:09.767Z,100.00
2023-04-17T23:24:36.596Z,100.00
2023-04-17T23:27:03.640Z,100.00
2023-04-17T23:29:30.300Z,100.00
2023-04-17T23:31:56.841Z,100.00
2023-04-17T23:34:23.513Z,100.00
2023-04-17T23:36:50.116Z,100.00
2023-04-17T23:39:16.766Z,100.00
2023-04-17T23:41:43.455Z,100.00
2023-04-17T23:44:10.029Z,100.00
2023-04-17T23:46:36.868Z,100.00
2023-04-17T23:49:03.796Z,100.00
2023-04-17T23:51:31.511Z,100.00
2023-04-17T23:53:59.890Z,100.00
2023-04-17T23:56:29.512Z,100.00
2023-04-17T23:58:56.727Z,100.00
